Time,TemperatureF,DewpointF,PressureIn,WindDirection,WindDirectionDegrees,WindSpeedMPH,WindSpeedGustMPH,Humidity,HourlyPrecipIn,Conditions,Clouds,dailyrainin,SolarRadiationWatts/m^2,SoftwareType,DateUTC
2013-03-22 00:04:00,15.0,9.0,-100.00,SE,129,2.0,3.0,78,0.00,,,0.14,0.000000,,2013-03-22 04:04:00,
2013-03-22 00:12:00,15.0,9.0,-100.00,SE,129,2.0,3.0,78,0.00,,,0.14,0.000000,,2013-03-22 04:12:00,
2013-03-22 00:23:00,15.0,9.0,-100.00,SE,129,2.0,3.0,78,0.00,,,0.14,0.000000,,2013-03-22 04:23:00,
2013-03-22 00:52:00,14.0,10.0,-100.00,SE,136,2.0,4.0,82,0.00,,,0.14,0.000000,,2013-03-22 04:52:00,
2013-03-22 01:02:00,14.0,10.0,-100.00,SE,136,2.0,4.0,82,0.00,,,0.14,0.000000,,2013-03-22 05:02:00,
2013-03-22 01:12:00,14.0,10.0,-100.00,SE,136,2.0,4.0,82,0.00,,,0.14,0.000000,,2013-03-22 05:12:00,
2013-03-22 01:22:00,14.0,10.0,-100.00,SE,136,2.0,4.0,82,0.00,,,0.14,0.000000,,2013-03-22 05:22:00,
2013-03-22 01:52:00,12.0,8.0,-100.00,ESE,120,2.0,3.0,83,0.00,,,0.14,0.000000,,2013-03-22 05:52:00,
2013-03-22 02:02:00,12.0,8.0,-100.00,ESE,120,2.0,3.0,83,0.00,,,0.14,0.000000,,2013-03-22 06:02:00,
2013-03-22 02:13:00,12.0,8.0,-100.00,ESE,120,2.0,3.0,83,0.00,,,0.14,0.000000,,2013-03-22 06:13:00,
2013-03-22 02:22:00,12.0,8.0,-100.00,ESE,120,2.0,3.0,83,0.00,,,0.14,0.000000,,2013-03-22 06:22:00,
2013-03-22 02:52:00,13.0,9.0,-100.00,ESE,115,0.0,2.0,85,0.00,,,0.14,0.000000,,2013-03-22 06:52:00,
2013-03-22 03:03:00,13.0,9.0,-100.00,ESE,115,0.0,2.0,85,0.00,,,0.14,0.000000,,2013-03-22 07:03:00,
2013-03-22 03:12:00,13.0,9.0,-100.00,ESE,115,0.0,2.0,85,0.00,,,0.14,0.000000,,2013-03-22 07:12:00,
2013-03-22 03:22:00,13.0,9.0,-100.00,ESE,115,0.0,2.0,85,0.00,,,0.14,0.000000,,2013-03-22 07:22:00,
2013-03-22 03:52:00,12.0,9.0,-100.00,East,84,2.0,3.0,86,0.00,,,0.14,0.000000,,2013-03-22 07:52:00,
2013-03-22 04:03:00,12.0,9.0,-100.00,East,84,2.0,3.0,86,0.00,,,0.14,0.000000,,2013-03-22 08:03:00,
2013-03-22 04:13:00,12.0,9.0,-100.00,East,84,2.0,3.0,86,0.00,,,0.14,0.000000,,2013-03-22 08:13:00,
2013-03-22 04:22:00,12.0,9.0,-100.00,East,84,2.0,3.0,86,0.00,,,0.14,0.000000,,2013-03-22 08:22:00,
2013-03-22 04:52:00,10.0,7.0,-100.00,NE,42,0.0,2.0,86,0.00,,,0.14,0.000000,,2013-03-22 08:52:00,
2013-03-22 05:03:00,10.0,7.0,-100.00,NE,42,0.0,2.0,86,0.00,,,0.14,0.000000,,2013-03-22 09:03:00,
2013-03-22 05:12:00,10.0,7.0,-100.00,NE,42,0.0,2.0,86,0.00,,,0.14,0.000000,,2013-03-22 09:12:00,
2013-03-22 05:22:00,10.0,7.0,-100.00,NE,42,0.0,2.0,86,0.00,,,0.14,0.000000,,2013-03-22 09:22:00,
2013-03-22 05:53:00,7.0,3.0,-100.00,SSE,151,1.0,2.0,83,0.00,,,0.14,0.000000,,2013-03-22 09:53:00,
2013-03-22 06:04:00,7.0,3.0,-100.00,SSE,151,1.0,2.0,83,0.00,,,0.14,0.000000,,2013-03-22 10:04:00,
2013-03-22 06:12:00,7.0,3.0,-100.00,SSE,151,1.0,2.0,83,0.00,,,0.14,0.000000,,2013-03-22 10:12:00,
2013-03-22 06:23:00,7.0,3.0,-100.00,SSE,151,1.0,2.0,83,0.00,,,0.14,0.000000,,2013-03-22 10:23:00,
2013-03-22 06:52:00,6.0,2.0,-100.00,SSW,207,1.0,2.0,82,0.00,,,0.14,0.000000,,2013-03-22 10:52:00,
2013-03-22 07:03:00,6.0,2.0,-100.00,SSW,207,1.0,2.0,82,0.00,,,0.14,0.000000,,2013-03-22 11:03:00,
2013-03-22 07:12:00,6.0,2.0,-100.00,SSW,207,1.0,2.0,82,0.00,,,0.14,0.000000,,2013-03-22 11:12:00,
2013-03-22 07:22:00,6.0,2.0,-100.00,SSW,207,1.0,2.0,82,0.00,,,0.14,0.000000,,2013-03-22 11:22:00,
2013-03-22 07:52:00,6.0,1.0,-100.00,NE,35,0.0,2.0,81,0.00,,,0.14,10.000000,,2013-03-22 11:52:00,
2013-03-22 08:02:00,6.0,1.0,-100.00,NE,35,0.0,2.0,81,0.00,,,0.14,10.000000,,2013-03-22 12:02:00,
2013-03-22 08:12:00,6.0,1.0,-100.00,NE,35,0.0,2.0,81,0.00,,,0.14,10.000000,,2013-03-22 12:12:00,
2013-03-22 08:22:00,6.0,1.0,-100.00,NE,35,0.0,2.0,81,0.00,,,0.14,10.000000,,2013-03-22 12:22:00,
2013-03-22 08:52:00,9.0,4.0,-100.00,WNW,295,1.0,2.0,79,0.00,,,0.14,43.000000,,2013-03-22 12:52:00,
2013-03-22 09:02:00,9.0,4.0,-100.00,WNW,295,1.0,2.0,79,0.00,,,0.14,43.000000,,2013-03-22 13:02:00,
2013-03-22 09:13:00,9.0,4.0,-100.00,WNW,295,1.0,2.0,79,0.00,,,0.14,43.000000,,2013-03-22 13:13:00,
2013-03-22 09:22:00,9.0,4.0,-100.00,WNW,295,1.0,2.0,79,0.00,,,0.14,43.000000,,2013-03-22 13:22:00,
2013-03-22 09:53:00,16.0,9.0,-100.00,WNW,301,2.0,3.0,75,0.00,,,0.14,135.000000,,2013-03-22 13:53:00,
2013-03-22 10:03:00,16.0,9.0,-100.00,WNW,301,2.0,3.0,75,0.00,,,0.14,135.000000,,2013-03-22 14:03:00,
2013-03-22 10:12:00,16.0,9.0,-100.00,WNW,301,2.0,3.0,75,0.00,,,0.14,135.000000,,2013-03-22 14:12:00,
2013-03-22 10:22:00,16.0,9.0,-100.00,WNW,301,2.0,3.0,75,0.00,,,0.14,135.000000,,2013-03-22 14:22:00,
2013-03-22 10:52:00,24.0,14.0,-100.00,WNW,303,2.0,3.0,66,0.00,,,0.14,216.000000,,2013-03-22 14:52:00,
2013-03-22 11:03:00,24.0,14.0,-100.00,WNW,303,2.0,3.0,66,0.00,,,0.14,216.000000,,2013-03-22 15:03:00,
2013-03-22 11:12:00,24.0,14.0,-100.00,WNW,303,2.0,3.0,66,0.00,,,0.14,216.000000,,2013-03-22 15:12:00,
2013-03-22 11:22:00,24.0,14.0,-100.00,WNW,303,2.0,3.0,66,0.00,,,0.14,216.000000,,2013-03-22 15:22:00,
2013-03-22 11:53:00,32.0,16.0,-100.00,West,269,4.0,8.0,52,0.00,,,0.14,429.000000,,2013-03-22 15:53:00,
2013-03-22 12:03:00,32.0,16.0,-100.00,West,269,4.0,8.0,52,0.00,,,0.14,429.000000,,2013-03-22 16:03:00,
2013-03-22 12:13:00,32.0,16.0,-100.00,West,269,4.0,8.0,52,0.00,,,0.14,429.000000,,2013-03-22 16:13:00,
2013-03-22 12:23:00,32.0,16.0,-100.00,West,269,4.0,8.0,52,0.00,,,0.14,429.000000,,2013-03-22 16:23:00,
2013-03-22 12:53:00,31.0,13.0,-100.00,NW,309,4.0,12.0,47,0.00,,,0.13,547.000000,,2013-03-22 16:53:00,
2013-03-22 13:03:00,31.0,13.0,-100.00,NW,309,4.0,12.0,47,0.00,,,0.13,547.000000,,2013-03-22 17:03:00,
2013-03-22 13:12:00,31.0,13.0,-100.00,NW,309,4.0,12.0,47,0.00,,,0.13,547.000000,,2013-03-22 17:12:00,
2013-03-22 13:23:00,31.0,13.0,-100.00,NW,309,4.0,12.0,47,0.00,,,0.13,547.000000,,2013-03-22 17:23:00,
2013-03-22 13:53:00,31.0,15.0,-100.00,WNW,289,6.0,16.0,50,0.00,,,0.00,281.000000,,2013-03-22 17:53:00,
2013-03-22 14:02:00,31.0,15.0,-100.00,WNW,289,6.0,16.0,50,0.00,,,0.00,281.000000,,2013-03-22 18:02:00,
2013-03-22 14:12:00,31.0,15.0,-100.00,WNW,289,6.0,16.0,50,0.00,,,0.00,281.000000,,2013-03-22 18:12:00,
2013-03-22 14:22:00,31.0,15.0,-100.00,WNW,289,6.0,16.0,50,0.00,,,0.00,281.000000,,2013-03-22 18:22:00,
2013-03-22 14:52:00,34.0,16.0,-100.00,WNW,285,6.0,12.0,48,0.00,,,0.00,360.000000,,2013-03-22 18:52:00,
2013-03-22 15:02:00,34.0,16.0,-100.00,WNW,285,6.0,12.0,48,0.00,,,0.00,360.000000,,2013-03-22 19:02:00,
2013-03-22 15:12:00,34.0,16.0,-100.00,WNW,285,6.0,12.0,48,0.00,,,0.00,360.000000,,2013-03-22 19:12:00,
2013-03-22 15:22:00,34.0,16.0,-100.00,WNW,285,6.0,12.0,48,0.00,,,0.00,360.000000,,2013-03-22 19:22:00,
2013-03-22 15:52:00,32.0,16.0,-100.00,WNW,296,7.0,14.0,51,0.00,,,0.00,358.000000,,2013-03-22 19:52:00,
2013-03-22 16:02:00,32.0,16.0,-100.00,WNW,296,7.0,14.0,51,0.00,,,0.00,358.000000,,2013-03-22 20:02:00,
2013-03-22 16:13:00,32.0,16.0,-100.00,WNW,296,7.0,14.0,51,0.00,,,0.00,358.000000,,2013-03-22 20:13:00,
2013-03-22 16:22:00,32.0,16.0,-100.00,WNW,296,7.0,14.0,51,0.00,,,0.00,358.000000,,2013-03-22 20:22:00,
2013-03-22 16:52:00,33.0,15.0,-100.00,WNW,296,7.0,16.0,48,0.00,,,0.00,428.000000,,2013-03-22 20:52:00,
2013-03-22 17:03:00,33.0,15.0,-100.00,WNW,296,7.0,16.0,48,0.00,,,0.00,428.000000,,2013-03-22 21:03:00,
2013-03-22 17:12:00,33.0,15.0,-100.00,WNW,296,7.0,16.0,48,0.00,,,0.00,428.000000,,2013-03-22 21:12:00,
2013-03-22 17:22:00,33.0,15.0,-100.00,WNW,296,7.0,16.0,48,0.00,,,0.00,428.000000,,2013-03-22 21:22:00,
2013-03-22 17:53:00,31.0,18.0,-100.00,WNW,295,6.0,14.0,58,0.00,,,0.00,301.000000,,2013-03-22 21:53:00,
2013-03-22 18:03:00,31.0,18.0,-100.00,WNW,295,6.0,14.0,58,0.00,,,0.00,301.000000,,2013-03-22 22:03:00,
2013-03-22 18:12:00,31.0,18.0,-100.00,WNW,295,6.0,14.0,58,0.00,,,0.00,301.000000,,2013-03-22 22:12:00,
2013-03-22 18:23:00,31.0,18.0,-100.00,WNW,295,6.0,14.0,58,0.00,,,0.00,301.000000,,2013-03-22 22:23:00,
2013-03-22 18:53:00,27.0,13.0,-100.00,West,281,6.0,14.0,55,0.00,,,0.00,86.000000,,2013-03-22 22:53:00,
2013-03-22 19:02:00,27.0,13.0,-100.00,West,281,6.0,14.0,55,0.00,,,0.00,86.000000,,2013-03-22 23:02:00,
2013-03-22 19:12:00,27.0,13.0,-100.00,West,281,6.0,14.0,55,0.00,,,0.00,86.000000,,2013-03-22 23:12:00,
2013-03-22 19:22:00,27.0,13.0,-100.00,West,281,6.0,14.0,55,0.00,,,0.00,86.000000,,2013-03-22 23:22:00,
2013-03-22 19:52:00,26.0,16.0,-100.00,NW,311,4.0,12.0,64,0.00,,,0.00,5.000000,,2013-03-22 23:52:00,
2013-03-22 20:02:00,26.0,16.0,-100.00,NW,311,4.0,12.0,64,0.00,,,0.00,5.000000,,2013-03-23 00:02:00,
2013-03-22 20:12:00,26.0,16.0,-100.00,NW,311,4.0,12.0,64,0.00,,,0.00,5.000000,,2013-03-23 00:12:00,
2013-03-22 20:23:00,26.0,16.0,-100.00,NW,311,4.0,12.0,64,0.00,,,0.00,5.000000,,2013-03-23 00:23:00,
2013-03-22 20:52:00,24.0,15.0,-100.00,West,277,7.0,14.0,69,0.00,,,0.00,0.000000,,2013-03-23 00:52:00,
2013-03-22 21:03:00,24.0,15.0,-100.00,West,277,7.0,14.0,69,0.00,,,0.00,0.000000,,2013-03-23 01:03:00,
2013-03-22 21:12:00,24.0,15.0,-100.00,West,277,7.0,14.0,69,0.00,,,0.00,0.000000,,2013-03-23 01:12:00,
2013-03-22 21:22:00,24.0,15.0,-100.00,West,277,7.0,14.0,69,0.00,,,0.00,0.000000,,2013-03-23 01:22:00,
2013-03-22 21:52:00,22.0,14.0,-100.00,West,275,5.0,17.0,71,0.00,,,0.00,0.000000,,2013-03-23 01:52:00,
2013-03-22 22:02:00,22.0,14.0,-100.00,West,275,5.0,17.0,71,0.00,,,0.00,0.000000,,2013-03-23 02:02:00,
2013-03-22 22:12:00,22.0,14.0,-100.00,West,275,5.0,17.0,71,0.00,,,0.00,0.000000,,2013-03-23 02:12:00,
2013-03-22 22:22:00,22.0,14.0,-100.00,West,275,5.0,17.0,71,0.00,,,0.00,0.000000,,2013-03-23 02:22:00,
2013-03-22 22:52:00,21.0,14.0,-100.00,WNW,291,3.0,12.0,73,0.00,,,0.00,0.000000,,2013-03-23 02:52:00,
2013-03-22 23:03:00,21.0,14.0,-100.00,WNW,291,3.0,12.0,73,0.00,,,0.00,0.000000,,2013-03-23 03:03:00,
2013-03-22 23:12:00,21.0,14.0,-100.00,WNW,291,3.0,12.0,73,0.00,,,0.00,0.000000,,2013-03-23 03:12:00,
2013-03-22 23:23:00,21.0,14.0,-100.00,WNW,291,3.0,12.0,73,0.00,,,0.00,0.000000,,2013-03-23 03:23:00,
2013-03-22 23:53:00,21.0,15.0,-100.00,West,281,4.0,10.0,78,0.00,,,0.00,0.000000,,2013-03-23 03:53:00,